sensor_id;sensor_type;location;lat;lon;timestamp;P1;durP1;ratioP1;P2;durP2;ratioP2
37203;SDS011;23098;48.054;10.636;2023-06-10T00:01:43;12.13;;;10.48;;
37203;SDS011;23098;48.054;10.636;2023-06-10T00:04:12;16.02;;;11.00;;
37203;SDS011;23098;48.054;10.636;2023-06-10T00:06:38;11.20;;;10.10;;
37203;SDS011;23098;48.054;10.636;2023-06-10T00:09:04;11.45;;;10.23;;
37203;SDS011;23098;48.054;10.636;2023-06-10T00:11:33;11.55;;;10.35;;
37203;SDS011;23098;48.054;10.636;2023-06-10T00:13:59;16.70;;;10.27;;
37203;SDS011;23098;48.054;10.636;2023-06-10T00:16:25;12.55;;;10.27;;
37203;SDS011;23098;48.054;10.636;2023-06-10T00:18:51;12.27;;;9.90;;
37203;SDS011;23098;48.054;10.636;2023-06-10T00:21:17;13.40;;;10.23;;
37203;SDS011;23098;48.054;10.636;2023-06-10T00:23:43;11.70;;;10.30;;
37203;SDS011;23098;48.054;10.636;2023-06-10T00:26:09;12.32;;;10.27;;
37203;SDS011;23098;48.054;10.636;2023-06-10T00:28:35;14.65;;;10.63;;
37203;SDS011;23098;48.054;10.636;2023-06-10T00:31:00;14.77;;;10.80;;
37203;SDS011;23098;48.054;10.636;2023-06-10T00:33:27;12.57;;;11.02;;
37203;SDS011;23098;48.054;10.636;2023-06-10T00:35:53;12.43;;;11.20;;
37203;SDS011;23098;48.054;10.636;2023-06-10T00:38:18;12.18;;;10.85;;
37203;SDS011;23098;48.054;10.636;2023-06-10T00:40:44;14.50;;;11.05;;
37203;SDS011;23098;48.054;10.636;2023-06-10T00:43:09;12.70;;;10.85;;
37203;SDS011;23098;48.054;10.636;2023-06-10T00:45:35;11.98;;;10.68;;
37203;SDS011;23098;48.054;10.636;2023-06-10T00:48:00;11.93;;;10.73;;
37203;SDS011;23098;48.054;10.636;2023-06-10T00:50:27;13.23;;;10.88;;
37203;SDS011;23098;48.054;10.636;2023-06-10T00:52:53;13.75;;;11.73;;
37203;SDS011;23098;48.054;10.636;2023-06-10T00:55:19;17.33;;;11.23;;
37203;SDS011;23098;48.054;10.636;2023-06-10T00:57:45;16.45;;;11.32;;
37203;SDS011;23098;48.054;10.636;2023-06-10T01:00:13;13.95;;;11.73;;
37203;SDS011;23098;48.054;10.636;2023-06-10T01:02:40;17.45;;;12.52;;
37203;SDS011;23098;48.054;10.636;2023-06-10T01:05:06;13.20;;;11.80;;
37203;SDS011;23098;48.054;10.636;2023-06-10T01:07:50;14.50;;;11.45;;
37203;SDS011;23098;48.054;10.636;2023-06-10T01:10:32;14.38;;;10.35;;
37203;SDS011;23098;48.054;10.636;2023-06-10T01:12:59;13.43;;;11.57;;
37203;SDS011;23098;48.054;10.636;2023-06-10T01:15:33;16.17;;;11.68;;
37203;SDS011;23098;48.054;10.636;2023-06-10T01:18:00;15.23;;;11.57;;
37203;SDS011;23098;48.054;10.636;2023-06-10T01:20:33;13.80;;;11.60;;
37203;SDS011;23098;48.054;10.636;2023-06-10T01:23:02;16.42;;;11.43;;
37203;SDS011;23098;48.054;10.636;2023-06-10T01:25:28;13.23;;;11.25;;
37203;SDS011;23098;48.054;10.636;2023-06-10T01:30:44;13.18;;;11.55;;
37203;SDS011;23098;48.054;10.636;2023-06-10T01:33:25;13.43;;;11.50;;
37203;SDS011;23098;48.054;10.636;2023-06-10T01:35:53;14.13;;;11.55;;
37203;SDS011;23098;48.054;10.636;2023-06-10T01:38:20;12.90;;;11.50;;
37203;SDS011;23098;48.054;10.636;2023-06-10T01:40:48;15.48;;;11.30;;
37203;SDS011;23098;48.054;10.636;2023-06-10T01:43:15;13.60;;;12.13;;
37203;SDS011;23098;48.054;10.636;2023-06-10T01:45:40;15.18;;;11.77;;
37203;SDS011;23098;48.054;10.636;2023-06-10T01:48:06;13.45;;;12.15;;
37203;SDS011;23098;48.054;10.636;2023-06-10T01:50:31;13.60;;;12.07;;
37203;SDS011;23098;48.054;10.636;2023-06-10T01:52:57;14.88;;;11.95;;
37203;SDS011;23098;48.054;10.636;2023-06-10T01:55:24;19.95;;;11.98;;
37203;SDS011;23098;48.054;10.636;2023-06-10T01:57:50;15.52;;;11.95;;
37203;SDS011;23098;48.054;10.636;2023-06-10T02:00:16;14.15;;;11.63;;
37203;SDS011;23098;48.054;10.636;2023-06-10T02:02:42;13.63;;;11.98;;
37203;SDS011;23098;48.054;10.636;2023-06-10T02:05:07;15.57;;;11.43;;
37203;SDS011;23098;48.054;10.636;2023-06-10T02:07:33;13.75;;;11.70;;
37203;SDS011;23098;48.054;10.636;2023-06-10T02:09:59;15.38;;;12.27;;
37203;SDS011;23098;48.054;10.636;2023-06-10T02:12:24;14.02;;;12.40;;
37203;SDS011;23098;48.054;10.636;2023-06-10T02:14:50;13.57;;;12.13;;
37203;SDS011;23098;48.054;10.636;2023-06-10T02:17:16;16.23;;;12.10;;
37203;SDS011;23098;48.054;10.636;2023-06-10T02:19:41;15.48;;;12.55;;
37203;SDS011;23098;48.054;10.636;2023-06-10T02:22:08;14.57;;;12.05;;
37203;SDS011;23098;48.054;10.636;2023-06-10T02:24:35;14.10;;;12.10;;
37203;SDS011;23098;48.054;10.636;2023-06-10T02:27:02;14.80;;;12.88;;
37203;SDS011;23098;48.054;10.636;2023-06-10T02:29:28;14.43;;;12.00;;
37203;SDS011;23098;48.054;10.636;2023-06-10T02:31:54;16.50;;;13.25;;
37203;SDS011;23098;48.054;10.636;2023-06-10T02:34:20;17.52;;;12.52;;
37203;SDS011;23098;48.054;10.636;2023-06-10T02:36:45;17.75;;;12.50;;
37203;SDS011;23098;48.054;10.636;2023-06-10T02:39:11;15.63;;;13.15;;
37203;SDS011;23098;48.054;10.636;2023-06-10T02:41:37;13.77;;;12.02;;
37203;SDS011;23098;48.054;10.636;2023-06-10T02:44:02;16.40;;;12.70;;
37203;SDS011;23098;48.054;10.636;2023-06-10T02:46:28;16.13;;;11.50;;
37203;SDS011;23098;48.054;10.636;2023-06-10T02:48:54;15.52;;;12.57;;
37203;SDS011;23098;48.054;10.636;2023-06-10T02:51:19;17.73;;;13.30;;
37203;SDS011;23098;48.054;10.636;2023-06-10T02:53:46;14.68;;;12.32;;
37203;SDS011;23098;48.054;10.636;2023-06-10T02:56:11;14.07;;;12.15;;
37203;SDS011;23098;48.054;10.636;2023-06-10T02:58:37;14.18;;;11.85;;
37203;SDS011;23098;48.054;10.636;2023-06-10T03:01:03;15.88;;;13.15;;
37203;SDS011;23098;48.054;10.636;2023-06-10T03:03:28;15.32;;;12.68;;
37203;SDS011;23098;48.054;10.636;2023-06-10T03:05:55;15.57;;;13.05;;
37203;SDS011;23098;48.054;10.636;2023-06-10T03:08:21;16.88;;;12.18;;
37203;SDS011;23098;48.054;10.636;2023-06-10T03:10:47;14.15;;;12.57;;
37203;SDS011;23098;48.054;10.636;2023-06-10T03:13:12;14.77;;;12.95;;
37203;SDS011;23098;48.054;10.636;2023-06-10T03:15:39;16.25;;;12.52;;
37203;SDS011;23098;48.054;10.636;2023-06-10T03:18:05;14.45;;;12.02;;
37203;SDS011;23098;48.054;10.636;2023-06-10T03:20:32;15.43;;;12.80;;
37203;SDS011;23098;48.054;10.636;2023-06-10T03:23:01;17.60;;;12.90;;
37203;SDS011;23098;48.054;10.636;2023-06-10T03:25:27;15.20;;;12.73;;
37203;SDS011;23098;48.054;10.636;2023-06-10T03:27:53;15.75;;;12.27;;
37203;SDS011;23098;48.054;10.636;2023-06-10T03:30:19;17.52;;;12.63;;
37203;SDS011;23098;48.054;10.636;2023-06-10T03:32:44;17.92;;;13.95;;
37203;SDS011;23098;48.054;10.636;2023-06-10T03:35:10;15.20;;;13.00;;
37203;SDS011;23098;48.054;10.636;2023-06-10T03:37:36;15.68;;;12.98;;
37203;SDS011;23098;48.054;10.636;2023-06-10T03:40:02;16.25;;;13.25;;
37203;SDS011;23098;48.054;10.636;2023-06-10T03:42:28;14.80;;;13.15;;
37203;SDS011;23098;48.054;10.636;2023-06-10T03:44:54;13.98;;;12.18;;
37203;SDS011;23098;48.054;10.636;2023-06-10T03:47:20;16.38;;;12.95;;
37203;SDS011;23098;48.054;10.636;2023-06-10T03:49:46;15.73;;;12.90;;
37203;SDS011;23098;48.054;10.636;2023-06-10T03:52:11;13.85;;;12.10;;
37203;SDS011;23098;48.054;10.636;2023-06-10T03:54:37;16.30;;;12.57;;
37203;SDS011;23098;48.054;10.636;2023-06-10T03:57:02;14.18;;;11.85;;
37203;SDS011;23098;48.054;10.636;2023-06-10T03:59:28;14.88;;;12.15;;
37203;SDS011;23098;48.054;10.636;2023-06-10T04:01:54;13.18;;;11.75;;
37203;SDS011;23098;48.054;10.636;2023-06-10T04:04:19;15.60;;;11.82;;
37203;SDS011;23098;48.054;10.636;2023-06-10T04:06:45;13.30;;;11.25;;
37203;SDS011;23098;48.054;10.636;2023-06-10T04:09:11;20.25;;;12.43;;
37203;SDS011;23098;48.054;10.636;2023-06-10T04:11:37;14.07;;;11.48;;
37203;SDS011;23098;48.054;10.636;2023-06-10T04:14:03;13.32;;;10.82;;
37203;SDS011;23098;48.054;10.636;2023-06-10T04:16:28;11.40;;;10.20;;
37203;SDS011;23098;48.054;10.636;2023-06-10T04:18:54;12.07;;;10.25;;
37203;SDS011;23098;48.054;10.636;2023-06-10T04:21:20;10.77;;;9.00;;
37203;SDS011;23098;48.054;10.636;2023-06-10T04:23:46;9.75;;;8.68;;
37203;SDS011;23098;48.054;10.636;2023-06-10T04:26:12;9.90;;;8.90;;
37203;SDS011;23098;48.054;10.636;2023-06-10T04:28:38;9.30;;;8.27;;
37203;SDS011;23098;48.054;10.636;2023-06-10T04:31:03;9.00;;;8.10;;
37203;SDS011;23098;48.054;10.636;2023-06-10T04:33:29;14.07;;;8.68;;
37203;SDS011;23098;48.054;10.636;2023-06-10T04:35:55;9.00;;;8.10;;
37203;SDS011;23098;48.054;10.636;2023-06-10T04:38:21;9.38;;;7.70;;
37203;SDS011;23098;48.054;10.636;2023-06-10T04:40:46;8.23;;;7.43;;
37203;SDS011;23098;48.054;10.636;2023-06-10T04:43:12;8.45;;;7.60;;
37203;SDS011;23098;48.054;10.636;2023-06-10T04:45:38;7.88;;;6.88;;
37203;SDS011;23098;48.054;10.636;2023-06-10T04:48:04;8.52;;;7.63;;
37203;SDS011;23098;48.054;10.636;2023-06-10T04:50:30;7.80;;;7.03;;
37203;SDS011;23098;48.054;10.636;2023-06-10T04:52:57;8.10;;;7.05;;
37203;SDS011;23098;48.054;10.636;2023-06-10T04:55:23;8.80;;;7.30;;
37203;SDS011;23098;48.054;10.636;2023-06-10T04:57:50;8.40;;;7.60;;
37203;SDS011;23098;48.054;10.636;2023-06-10T05:00:16;9.10;;;7.47;;
37203;SDS011;23098;48.054;10.636;2023-06-10T05:02:42;8.95;;;7.63;;
37203;SDS011;23098;48.054;10.636;2023-06-10T05:05:08;8.60;;;7.50;;
37203;SDS011;23098;48.054;10.636;2023-06-10T05:07:33;9.32;;;7.80;;
37203;SDS011;23098;48.054;10.636;2023-06-10T05:09:59;12.45;;;7.70;;
37203;SDS011;23098;48.054;10.636;2023-06-10T05:12:24;8.60;;;7.70;;
37203;SDS011;23098;48.054;10.636;2023-06-10T05:14:51;9.25;;;7.30;;
37203;SDS011;23098;48.054;10.636;2023-06-10T05:17:16;8.50;;;7.68;;
37203;SDS011;23098;48.054;10.636;2023-06-10T05:19:42;11.07;;;8.32;;
37203;SDS011;23098;48.054;10.636;2023-06-10T05:22:08;8.18;;;7.38;;
37203;SDS011;23098;48.054;10.636;2023-06-10T05:24:34;9.23;;;7.57;;
37203;SDS011;23098;48.054;10.636;2023-06-10T05:26:59;9.13;;;7.72;;
37203;SDS011;23098;48.054;10.636;2023-06-10T05:29:25;9.88;;;8.30;;
37203;SDS011;23098;48.054;10.636;2023-06-10T05:31:50;9.75;;;8.10;;
37203;SDS011;23098;48.054;10.636;2023-06-10T05:34:16;9.48;;;8.07;;
37203;SDS011;23098;48.054;10.636;2023-06-10T05:36:42;9.93;;;8.52;;
37203;SDS011;23098;48.054;10.636;2023-06-10T05:39:08;10.60;;;8.32;;
37203;SDS011;23098;48.054;10.636;2023-06-10T05:41:34;12.02;;;8.07;;
37203;SDS011;23098;48.054;10.636;2023-06-10T05:44:00;9.82;;;7.88;;
37203;SDS011;23098;48.054;10.636;2023-06-10T05:46:25;8.80;;;7.90;;
37203;SDS011;23098;48.054;10.636;2023-06-10T05:48:51;9.23;;;8.02;;
37203;SDS011;23098;48.054;10.636;2023-06-10T05:51:16;9.77;;;8.35;;
37203;SDS011;23098;48.054;10.636;2023-06-10T05:53:42;9.30;;;8.25;;
37203;SDS011;23098;48.054;10.636;2023-06-10T05:56:08;8.23;;;7.35;;
37203;SDS011;23098;48.054;10.636;2023-06-10T05:58:33;12.15;;;8.13;;
37203;SDS011;23098;48.054;10.636;2023-06-10T06:01:00;10.02;;;8.05;;
37203;SDS011;23098;48.054;10.636;2023-06-10T06:03:26;8.60;;;7.72;;
37203;SDS011;23098;48.054;10.636;2023-06-10T06:05:53;8.50;;;7.65;;
37203;SDS011;23098;48.054;10.636;2023-06-10T06:08:19;8.65;;;7.80;;
37203;SDS011;23098;48.054;10.636;2023-06-10T06:10:44;9.57;;;7.72;;
37203;SDS011;23098;48.054;10.636;2023-06-10T06:13:10;8.10;;;7.30;;
37203;SDS011;23098;48.054;10.636;2023-06-10T06:15:35;8.98;;;7.80;;
37203;SDS011;23098;48.054;10.636;2023-06-10T06:18:01;9.07;;;7.90;;
37203;SDS011;23098;48.054;10.636;2023-06-10T06:20:27;10.55;;;7.85;;
37203;SDS011;23098;48.054;10.636;2023-06-10T06:22:52;9.95;;;7.90;;
37203;SDS011;23098;48.054;10.636;2023-06-10T06:25:20;11.48;;;8.45;;
37203;SDS011;23098;48.054;10.636;2023-06-10T06:27:47;8.60;;;7.68;;
37203;SDS011;23098;48.054;10.636;2023-06-10T06:30:12;9.07;;;7.68;;
37203;SDS011;23098;48.054;10.636;2023-06-10T06:32:38;10.13;;;7.75;;
37203;SDS011;23098;48.054;10.636;2023-06-10T06:35:03;9.82;;;7.80;;
37203;SDS011;23098;48.054;10.636;2023-06-10T06:37:32;8.75;;;7.85;;
37203;SDS011;23098;48.054;10.636;2023-06-10T06:39:58;8.05;;;7.25;;
37203;SDS011;23098;48.054;10.636;2023-06-10T06:42:24;9.25;;;8.35;;
37203;SDS011;23098;48.054;10.636;2023-06-10T06:44:49;9.60;;;8.30;;
37203;SDS011;23098;48.054;10.636;2023-06-10T06:47:15;9.35;;;8.43;;
37203;SDS011;23098;48.054;10.636;2023-06-10T06:49:44;8.85;;;7.95;;
37203;SDS011;23098;48.054;10.636;2023-06-10T06:52:14;9.15;;;7.97;;
37203;SDS011;23098;48.054;10.636;2023-06-10T06:54:40;9.43;;;8.52;;
37203;SDS011;23098;48.054;10.636;2023-06-10T06:57:06;9.52;;;7.85;;
37203;SDS011;23098;48.054;10.636;2023-06-10T06:59:33;8.55;;;7.65;;
37203;SDS011;23098;48.054;10.636;2023-06-10T07:01:58;8.38;;;7.47;;
37203;SDS011;23098;48.054;10.636;2023-06-10T07:04:24;10.57;;;7.32;;
37203;SDS011;23098;48.054;10.636;2023-06-10T07:06:49;8.00;;;7.20;;
37203;SDS011;23098;48.054;10.636;2023-06-10T07:09:15;8.80;;;7.90;;
37203;SDS011;23098;48.054;10.636;2023-06-10T07:11:41;8.50;;;7.53;;
37203;SDS011;23098;48.054;10.636;2023-06-10T07:14:06;7.90;;;7.10;;
37203;SDS011;23098;48.054;10.636;2023-06-10T07:16:32;10.00;;;7.60;;
37203;SDS011;23098;48.054;10.636;2023-06-10T07:18:57;9.38;;;7.75;;
37203;SDS011;23098;48.054;10.636;2023-06-10T07:21:23;9.05;;;6.47;;
37203;SDS011;23098;48.054;10.636;2023-06-10T07:23:49;9.48;;;7.07;;
37203;SDS011;23098;48.054;10.636;2023-06-10T07:26:17;7.22;;;6.50;;
37203;SDS011;23098;48.054;10.636;2023-06-10T07:28:43;8.25;;;6.47;;
37203;SDS011;23098;48.054;10.636;2023-06-10T07:31:08;7.53;;;6.80;;
37203;SDS011;23098;48.054;10.636;2023-06-10T07:33:34;7.47;;;6.68;;
37203;SDS011;23098;48.054;10.636;2023-06-10T07:35:59;8.18;;;7.32;;
37203;SDS011;23098;48.054;10.636;2023-06-10T07:38:25;8.48;;;7.40;;
37203;SDS011;23098;48.054;10.636;2023-06-10T07:40:51;7.53;;;6.65;;
37203;SDS011;23098;48.054;10.636;2023-06-10T07:43:17;8.65;;;7.25;;
37203;SDS011;23098;48.054;10.636;2023-06-10T07:45:43;7.57;;;6.60;;
37203;SDS011;23098;48.054;10.636;2023-06-10T07:48:09;8.48;;;6.85;;
37203;SDS011;23098;48.054;10.636;2023-06-10T07:50:34;8.70;;;7.15;;
37203;SDS011;23098;48.054;10.636;2023-06-10T07:53:01;8.50;;;7.60;;
37203;SDS011;23098;48.054;10.636;2023-06-10T07:55:26;9.82;;;7.57;;
37203;SDS011;23098;48.054;10.636;2023-06-10T07:57:52;7.95;;;7.15;;
37203;SDS011;23098;48.054;10.636;2023-06-10T08:00:19;9.73;;;6.47;;
37203;SDS011;23098;48.054;10.636;2023-06-10T08:02:45;7.50;;;6.68;;
37203;SDS011;23098;48.054;10.636;2023-06-10T08:05:11;7.82;;;6.43;;
37203;SDS011;23098;48.054;10.636;2023-06-10T08:07:37;7.20;;;6.05;;
37203;SDS011;23098;48.054;10.636;2023-06-10T08:10:04;8.10;;;6.10;;
37203;SDS011;23098;48.054;10.636;2023-06-10T08:12:31;6.55;;;5.55;;
37203;SDS011;23098;48.054;10.636;2023-06-10T08:14:57;7.75;;;5.20;;
37203;SDS011;23098;48.054;10.636;2023-06-10T08:17:23;6.78;;;5.93;;
37203;SDS011;23098;48.054;10.636;2023-06-10T08:19:49;7.72;;;5.35;;
37203;SDS011;23098;48.054;10.636;2023-06-10T08:22:14;6.15;;;5.03;;
37203;SDS011;23098;48.054;10.636;2023-06-10T08:24:40;5.20;;;4.70;;
37203;SDS011;23098;48.054;10.636;2023-06-10T08:27:05;5.78;;;4.75;;
37203;SDS011;23098;48.054;10.636;2023-06-10T08:29:31;6.47;;;5.13;;
37203;SDS011;23098;48.054;10.636;2023-06-10T08:31:57;7.57;;;4.72;;
37203;SDS011;23098;48.054;10.636;2023-06-10T08:34:23;5.57;;;4.97;;
37203;SDS011;23098;48.054;10.636;2023-06-10T08:36:50;5.88;;;4.78;;
37203;SDS011;23098;48.054;10.636;2023-06-10T08:39:20;5.70;;;4.47;;
37203;SDS011;23098;48.054;10.636;2023-06-10T08:42:00;5.50;;;4.57;;
37203;SDS011;23098;48.054;10.636;2023-06-10T08:44:36;7.07;;;5.03;;
37203;SDS011;23098;48.054;10.636;2023-06-10T08:47:11;6.05;;;4.32;;
37203;SDS011;23098;48.054;10.636;2023-06-10T08:49:41;6.97;;;4.97;;
37203;SDS011;23098;48.054;10.636;2023-06-10T08:52:09;5.97;;;4.78;;
37203;SDS011;23098;48.054;10.636;2023-06-10T08:54:40;8.23;;;6.30;;
37203;SDS011;23098;48.054;10.636;2023-06-10T08:57:10;7.22;;;5.80;;
37203;SDS011;23098;48.054;10.636;2023-06-10T08:59:37;7.32;;;5.47;;
37203;SDS011;23098;48.054;10.636;2023-06-10T09:02:05;6.15;;;5.18;;
37203;SDS011;23098;48.054;10.636;2023-06-10T09:04:33;6.65;;;5.68;;
37203;SDS011;23098;48.054;10.636;2023-06-10T09:06:59;7.97;;;5.55;;
37203;SDS011;23098;48.054;10.636;2023-06-10T09:09:27;6.28;;;5.20;;
37203;SDS011;23098;48.054;10.636;2023-06-10T09:11:55;5.70;;;5.05;;
37203;SDS011;23098;48.054;10.636;2023-06-10T09:14:21;6.80;;;4.75;;
37203;SDS011;23098;48.054;10.636;2023-06-10T09:16:46;5.68;;;4.80;;
37203;SDS011;23098;48.054;10.636;2023-06-10T09:19:13;9.30;;;4.97;;
37203;SDS011;23098;48.054;10.636;2023-06-10T09:21:41;6.28;;;5.22;;
37203;SDS011;23098;48.054;10.636;2023-06-10T09:24:06;5.10;;;4.50;;
37203;SDS011;23098;48.054;10.636;2023-06-10T09:26:32;8.07;;;5.68;;
37203;SDS011;23098;48.054;10.636;2023-06-10T09:29:02;6.03;;;5.10;;
37203;SDS011;23098;48.054;10.636;2023-06-10T09:31:34;6.40;;;5.78;;
37203;SDS011;23098;48.054;10.636;2023-06-10T09:34:08;6.35;;;5.38;;
37203;SDS011;23098;48.054;10.636;2023-06-10T09:36:37;7.78;;;5.25;;
37203;SDS011;23098;48.054;10.636;2023-06-10T09:39:04;5.10;;;4.55;;
37203;SDS011;23098;48.054;10.636;2023-06-10T09:41:33;5.63;;;5.03;;
37203;SDS011;23098;48.054;10.636;2023-06-10T09:44:00;5.13;;;4.63;;
37203;SDS011;23098;48.054;10.636;2023-06-10T09:46:29;4.82;;;4.13;;
37203;SDS011;23098;48.054;10.636;2023-06-10T09:48:57;5.90;;;4.10;;
37203;SDS011;23098;48.054;10.636;2023-06-10T09:51:23;5.07;;;4.47;;
37203;SDS011;23098;48.054;10.636;2023-06-10T09:53:48;5.25;;;4.10;;
37203;SDS011;23098;48.054;10.636;2023-06-10T09:56:18;4.82;;;4.10;;
37203;SDS011;23098;48.054;10.636;2023-06-10T09:58:44;4.30;;;3.83;;
37203;SDS011;23098;48.054;10.636;2023-06-10T10:01:12;5.93;;;4.70;;
37203;SDS011;23098;48.054;10.636;2023-06-10T10:06:11;4.68;;;3.88;;
37203;SDS011;23098;48.054;10.636;2023-06-10T10:08:37;4.30;;;3.83;;
37203;SDS011;23098;48.054;10.636;2023-06-10T10:11:03;5.72;;;5.10;;
37203;SDS011;23098;48.054;10.636;2023-06-10T10:13:28;5.60;;;4.10;;
37203;SDS011;23098;48.054;10.636;2023-06-10T10:15:56;6.68;;;4.40;;
37203;SDS011;23098;48.054;10.636;2023-06-10T10:18:26;5.82;;;4.20;;
37203;SDS011;23098;48.054;10.636;2023-06-10T10:20:55;5.38;;;4.68;;
37203;SDS011;23098;48.054;10.636;2023-06-10T10:23:29;5.65;;;4.30;;
37203;SDS011;23098;48.054;10.636;2023-06-10T10:25:59;5.35;;;4.85;;
37203;SDS011;23098;48.054;10.636;2023-06-10T10:28:29;5.15;;;4.07;;
37203;SDS011;23098;48.054;10.636;2023-06-10T10:31:07;5.90;;;4.18;;
37203;SDS011;23098;48.054;10.636;2023-06-10T10:33:49;4.70;;;4.25;;
37203;SDS011;23098;48.054;10.636;2023-06-10T10:36:23;5.03;;;4.07;;
37203;SDS011;23098;48.054;10.636;2023-06-10T10:38:49;4.22;;;3.80;;
37203;SDS011;23098;48.054;10.636;2023-06-10T10:41:16;4.13;;;3.70;;
37203;SDS011;23098;48.054;10.636;2023-06-10T10:43:43;7.30;;;5.00;;
37203;SDS011;23098;48.054;10.636;2023-06-10T10:46:14;5.45;;;3.95;;
37203;SDS011;23098;48.054;10.636;2023-06-10T10:48:41;5.78;;;4.47;;
37203;SDS011;23098;48.054;10.636;2023-06-10T10:51:07;4.05;;;3.50;;
37203;SDS011;23098;48.054;10.636;2023-06-10T10:53:34;4.07;;;3.67;;
37203;SDS011;23098;48.054;10.636;2023-06-10T10:56:15;4.53;;;4.13;;
37203;SDS011;23098;48.054;10.636;2023-06-10T10:59:04;4.80;;;3.83;;
37203;SDS011;23098;48.054;10.636;2023-06-10T11:01:42;5.07;;;4.22;;
37203;SDS011;23098;48.054;10.636;2023-06-10T11:04:11;4.00;;;3.60;;
37203;SDS011;23098;48.054;10.636;2023-06-10T11:06:37;6.50;;;3.58;;
37203;SDS011;23098;48.054;10.636;2023-06-10T11:09:24;4.00;;;3.60;;
37203;SDS011;23098;48.054;10.636;2023-06-10T11:11:56;3.38;;;3.08;;
37203;SDS011;23098;48.054;10.636;2023-06-10T11:14:29;4.43;;;3.42;;
37203;SDS011;23098;48.054;10.636;2023-06-10T11:16:58;5.03;;;3.30;;
37203;SDS011;23098;48.054;10.636;2023-06-10T11:19:37;3.35;;;3.05;;
37203;SDS011;23098;48.054;10.636;2023-06-10T11:22:15;3.70;;;3.40;;
37203;SDS011;23098;48.054;10.636;2023-06-10T11:24:41;3.40;;;3.10;;
37203;SDS011;23098;48.054;10.636;2023-06-10T11:27:18;4.65;;;3.20;;
37203;SDS011;23098;48.054;10.636;2023-06-10T11:29:58;3.38;;;3.08;;
37203;SDS011;23098;48.054;10.636;2023-06-10T11:32:43;3.55;;;3.25;;
37203;SDS011;23098;48.054;10.636;2023-06-10T11:35:09;3.45;;;2.80;;
37203;SDS011;23098;48.054;10.636;2023-06-10T11:37:36;3.40;;;3.08;;
37203;SDS011;23098;48.054;10.636;2023-06-10T11:40:01;3.15;;;2.75;;
37203;SDS011;23098;48.054;10.636;2023-06-10T11:42:27;3.30;;;3.00;;
37203;SDS011;23098;48.054;10.636;2023-06-10T11:44:53;5.03;;;3.30;;
37203;SDS011;23098;48.054;10.636;2023-06-10T11:47:19;5.20;;;2.83;;
37203;SDS011;23098;48.054;10.636;2023-06-10T11:49:51;3.83;;;2.85;;
37203;SDS011;23098;48.054;10.636;2023-06-10T11:52:30;4.28;;;3.75;;
37203;SDS011;23098;48.054;10.636;2023-06-10T11:55:04;3.40;;;3.10;;
37203;SDS011;23098;48.054;10.636;2023-06-10T11:57:33;3.97;;;2.78;;
37203;SDS011;23098;48.054;10.636;2023-06-10T12:00:04;3.42;;;2.95;;
37203;SDS011;23098;48.054;10.636;2023-06-10T12:02:30;4.38;;;3.45;;
37203;SDS011;23098;48.054;10.636;2023-06-10T12:05:09;4.70;;;3.80;;
37203;SDS011;23098;48.054;10.636;2023-06-10T12:07:35;5.20;;;4.40;;
37203;SDS011;23098;48.054;10.636;2023-06-10T12:10:01;6.75;;;5.47;;
37203;SDS011;23098;48.054;10.636;2023-06-10T12:12:26;3.65;;;3.30;;
37203;SDS011;23098;48.054;10.636;2023-06-10T12:14:59;4.30;;;3.65;;
37203;SDS011;23098;48.054;10.636;2023-06-10T12:19:56;3.40;;;3.10;;
37203;SDS011;23098;48.054;10.636;2023-06-10T12:22:22;2.38;;;2.13;;
37203;SDS011;23098;48.054;10.636;2023-06-10T12:25:02;2.30;;;2.10;;
37203;SDS011;23098;48.054;10.636;2023-06-10T12:27:30;3.92;;;2.80;;
37203;SDS011;23098;48.054;10.636;2023-06-10T12:29:57;3.83;;;3.17;;
37203;SDS011;23098;48.054;10.636;2023-06-10T12:32:35;3.38;;;2.33;;
37203;SDS011;23098;48.054;10.636;2023-06-10T12:35:04;3.15;;;2.75;;
37203;SDS011;23098;48.054;10.636;2023-06-10T12:37:31;4.10;;;2.67;;
37203;SDS011;23098;48.054;10.636;2023-06-10T12:40:01;4.63;;;3.33;;
37203;SDS011;23098;48.054;10.636;2023-06-10T12:42:28;3.28;;;2.50;;
37203;SDS011;23098;48.054;10.636;2023-06-10T12:44:54;3.10;;;2.42;;
37203;SDS011;23098;48.054;10.636;2023-06-10T12:47:28;4.90;;;2.85;;
37203;SDS011;23098;48.054;10.636;2023-06-10T12:49:59;3.70;;;2.47;;
37203;SDS011;23098;48.054;10.636;2023-06-10T12:52:25;2.88;;;2.58;;
37203;SDS011;23098;48.054;10.636;2023-06-10T12:54:53;3.35;;;2.90;;
37203;SDS011;23098;48.054;10.636;2023-06-10T12:57:19;7.00;;;3.60;;
37203;SDS011;23098;48.054;10.636;2023-06-10T12:59:45;2.95;;;2.65;;
37203;SDS011;23098;48.054;10.636;2023-06-10T13:02:17;3.30;;;3.00;;
37203;SDS011;23098;48.054;10.636;2023-06-10T13:04:43;7.47;;;3.60;;
37203;SDS011;23098;48.054;10.636;2023-06-10T13:07:09;4.28;;;3.60;;
37203;SDS011;23098;48.054;10.636;2023-06-10T13:09:35;3.65;;;3.35;;
37203;SDS011;23098;48.054;10.636;2023-06-10T13:12:01;4.05;;;3.50;;
37203;SDS011;23098;48.054;10.636;2023-06-10T13:14:28;3.97;;;3.20;;
37203;SDS011;23098;48.054;10.636;2023-06-10T13:16:54;4.22;;;3.42;;
37203;SDS011;23098;48.054;10.636;2023-06-10T13:19:20;3.38;;;3.08;;
37203;SDS011;23098;48.054;10.636;2023-06-10T13:21:46;3.50;;;3.20;;
37203;SDS011;23098;48.054;10.636;2023-06-10T13:24:12;4.53;;;3.13;;
37203;SDS011;23098;48.054;10.636;2023-06-10T13:26:38;3.72;;;3.30;;
37203;SDS011;23098;48.054;10.636;2023-06-10T13:29:03;3.50;;;3.20;;
37203;SDS011;23098;48.054;10.636;2023-06-10T13:31:30;3.58;;;3.28;;
37203;SDS011;23098;48.054;10.636;2023-06-10T13:33:57;3.53;;;2.80;;
37203;SDS011;23098;48.054;10.636;2023-06-10T13:36:23;3.38;;;3.08;;
37203;SDS011;23098;48.054;10.636;2023-06-10T13:38:48;4.07;;;3.58;;
37203;SDS011;23098;48.054;10.636;2023-06-10T13:41:14;5.78;;;3.55;;
37203;SDS011;23098;48.054;10.636;2023-06-10T13:43:39;3.88;;;3.40;;
37203;SDS011;23098;48.054;10.636;2023-06-10T13:46:05;4.95;;;3.60;;
37203;SDS011;23098;48.054;10.636;2023-06-10T13:48:31;4.88;;;3.63;;
37203;SDS011;23098;48.054;10.636;2023-06-10T13:50:56;3.70;;;3.40;;
37203;SDS011;23098;48.054;10.636;2023-06-10T13:53:22;4.07;;;3.53;;
37203;SDS011;23098;48.054;10.636;2023-06-10T13:55:48;5.43;;;3.70;;
37203;SDS011;23098;48.054;10.636;2023-06-10T13:58:13;4.20;;;3.47;;
37203;SDS011;23098;48.054;10.636;2023-06-10T14:00:39;5.07;;;3.40;;
37203;SDS011;23098;48.054;10.636;2023-06-10T14:03:04;4.20;;;3.55;;
37203;SDS011;23098;48.054;10.636;2023-06-10T14:05:30;3.72;;;3.42;;
37203;SDS011;23098;48.054;10.636;2023-06-10T14:07:55;3.53;;;3.22;;
37203;SDS011;23098;48.054;10.636;2023-06-10T14:10:21;3.78;;;3.47;;
37203;SDS011;23098;48.054;10.636;2023-06-10T14:12:47;3.90;;;3.60;;
37203;SDS011;23098;48.054;10.636;2023-06-10T14:15:12;4.78;;;3.80;;
37203;SDS011;23098;48.054;10.636;2023-06-10T14:17:38;5.32;;;3.50;;
37203;SDS011;23098;48.054;10.636;2023-06-10T14:20:04;3.92;;;3.08;;
37203;SDS011;23098;48.054;10.636;2023-06-10T14:22:32;4.50;;;3.80;;
37203;SDS011;23098;48.054;10.636;2023-06-10T14:24:57;4.22;;;3.70;;
37203;SDS011;23098;48.054;10.636;2023-06-10T14:27:23;4.20;;;3.78;;
37203;SDS011;23098;48.054;10.636;2023-06-10T14:29:48;5.78;;;3.97;;
37203;SDS011;23098;48.054;10.636;2023-06-10T14:32:14;4.50;;;3.80;;
37203;SDS011;23098;48.054;10.636;2023-06-10T14:34:40;3.88;;;3.25;;